sensor_id;sensor_type;location;lat;lon;timestamp;P1;durP1;ratioP1;P2;durP2;ratioP2
18425;SDS011;9340;48.756;9.226;2023-09-18T00:01:03;6.00;;;5.30;;
18425;SDS011;9340;48.756;9.226;2023-09-18T00:03:30;5.40;;;4.90;;
18425;SDS011;9340;48.756;9.226;2023-09-18T00:05:58;6.30;;;4.95;;
18425;SDS011;9340;48.756;9.226;2023-09-18T00:08:25;4.97;;;4.57;;
18425;SDS011;9340;48.756;9.226;2023-09-18T00:10:52;4.95;;;4.53;;
18425;SDS011;9340;48.756;9.226;2023-09-18T00:13:21;4.88;;;4.47;;
18425;SDS011;9340;48.756;9.226;2023-09-18T00:15:48;5.15;;;4.68;;
18425;SDS011;9340;48.756;9.226;2023-09-18T00:18:16;5.60;;;5.03;;
18425;SDS011;9340;48.756;9.226;2023-09-18T00:20:43;5.95;;;5.45;;
18425;SDS011;9340;48.756;9.226;2023-09-18T00:23:11;6.45;;;5.07;;
18425;SDS011;9340;48.756;9.226;2023-09-18T00:25:38;6.88;;;5.35;;
18425;SDS011;9340;48.756;9.226;2023-09-18T00:28:06;5.82;;;5.30;;
18425;SDS011;9340;48.756;9.226;2023-09-18T00:30:34;4.85;;;4.00;;
18425;SDS011;9340;48.756;9.226;2023-09-18T00:33:01;5.10;;;4.45;;
18425;SDS011;9340;48.756;9.226;2023-09-18T00:35:28;4.85;;;4.45;;
18425;SDS011;9340;48.756;9.226;2023-09-18T00:37:54;5.05;;;4.65;;
18425;SDS011;9340;48.756;9.226;2023-09-18T00:40:21;5.13;;;4.63;;
18425;SDS011;9340;48.756;9.226;2023-09-18T00:42:48;5.55;;;5.13;;
18425;SDS011;9340;48.756;9.226;2023-09-18T00:45:14;4.43;;;4.03;;
18425;SDS011;9340;48.756;9.226;2023-09-18T00:47:42;4.85;;;4.38;;
18425;SDS011;9340;48.756;9.226;2023-09-18T00:50:10;5.20;;;4.70;;
18425;SDS011;9340;48.756;9.226;2023-09-18T00:52:39;4.40;;;4.07;;
18425;SDS011;9340;48.756;9.226;2023-09-18T00:55:07;4.80;;;4.38;;
18425;SDS011;9340;48.756;9.226;2023-09-18T00:57:34;5.10;;;4.70;;
18425;SDS011;9340;48.756;9.226;2023-09-18T01:00:01;5.10;;;4.15;;
18425;SDS011;9340;48.756;9.226;2023-09-18T01:02:30;4.40;;;4.10;;
18425;SDS011;9340;48.756;9.226;2023-09-18T01:04:58;5.30;;;4.80;;
18425;SDS011;9340;48.756;9.226;2023-09-18T01:07:26;4.80;;;4.40;;
18425;SDS011;9340;48.756;9.226;2023-09-18T01:09:53;5.97;;;4.93;;
18425;SDS011;9340;48.756;9.226;2023-09-18T01:12:22;5.45;;;4.95;;
18425;SDS011;9340;48.756;9.226;2023-09-18T01:15:04;5.05;;;4.65;;
18425;SDS011;9340;48.756;9.226;2023-09-18T01:17:35;4.60;;;4.30;;
18425;SDS011;9340;48.756;9.226;2023-09-18T01:20:05;4.90;;;4.53;;
18425;SDS011;9340;48.756;9.226;2023-09-18T01:22:36;5.00;;;4.63;;
18425;SDS011;9340;48.756;9.226;2023-09-18T01:25:03;5.30;;;4.80;;
18425;SDS011;9340;48.756;9.226;2023-09-18T01:27:31;4.20;;;3.80;;
18425;SDS011;9340;48.756;9.226;2023-09-18T01:29:58;6.03;;;4.82;;
18425;SDS011;9340;48.756;9.226;2023-09-18T01:32:26;5.63;;;4.90;;
18425;SDS011;9340;48.756;9.226;2023-09-18T01:34:56;4.80;;;4.43;;
18425;SDS011;9340;48.756;9.226;2023-09-18T01:37:25;4.75;;;4.35;;
18425;SDS011;9340;48.756;9.226;2023-09-18T01:39:55;5.00;;;4.50;;
18425;SDS011;9340;48.756;9.226;2023-09-18T01:42:24;5.20;;;4.70;;
18425;SDS011;9340;48.756;9.226;2023-09-18T01:44:52;4.95;;;4.45;;
18425;SDS011;9340;48.756;9.226;2023-09-18T01:47:20;4.60;;;4.20;;
18425;SDS011;9340;48.756;9.226;2023-09-18T01:49:48;4.47;;;3.65;;
18425;SDS011;9340;48.756;9.226;2023-09-18T01:52:15;4.55;;;4.13;;
18425;SDS011;9340;48.756;9.226;2023-09-18T01:54:42;4.43;;;3.65;;
18425;SDS011;9340;48.756;9.226;2023-09-18T01:57:10;6.63;;;4.32;;
18425;SDS011;9340;48.756;9.226;2023-09-18T01:59:37;3.92;;;3.38;;
18425;SDS011;9340;48.756;9.226;2023-09-18T02:02:04;4.85;;;3.45;;
18425;SDS011;9340;48.756;9.226;2023-09-18T02:04:34;4.03;;;3.63;;
18425;SDS011;9340;48.756;9.226;2023-09-18T02:07:01;3.90;;;3.60;;
18425;SDS011;9340;48.756;9.226;2023-09-18T02:09:28;3.75;;;3.45;;
18425;SDS011;9340;48.756;9.226;2023-09-18T02:11:55;5.03;;;3.40;;
18425;SDS011;9340;48.756;9.226;2023-09-18T02:14:23;10.93;;;4.68;;
18425;SDS011;9340;48.756;9.226;2023-09-18T02:16:50;11.90;;;4.47;;
18425;SDS011;9340;48.756;9.226;2023-09-18T02:19:17;6.72;;;3.97;;
18425;SDS011;9340;48.756;9.226;2023-09-18T02:21:45;7.28;;;3.97;;
18425;SDS011;9340;48.756;9.226;2023-09-18T02:24:12;9.90;;;4.13;;
18425;SDS011;9340;48.756;9.226;2023-09-18T02:26:39;8.10;;;4.20;;
18425;SDS011;9340;48.756;9.226;2023-09-18T02:29:07;7.22;;;4.40;;
18425;SDS011;9340;48.756;9.226;2023-09-18T02:31:37;6.85;;;4.43;;
18425;SDS011;9340;48.756;9.226;2023-09-18T02:34:04;6.72;;;4.50;;
18425;SDS011;9340;48.756;9.226;2023-09-18T02:36:32;5.70;;;5.00;;
18425;SDS011;9340;48.756;9.226;2023-09-18T02:38:58;8.90;;;4.43;;
18425;SDS011;9340;48.756;9.226;2023-09-18T02:41:25;5.40;;;4.60;;
18425;SDS011;9340;48.756;9.226;2023-09-18T02:43:52;7.88;;;3.95;;
18425;SDS011;9340;48.756;9.226;2023-09-18T02:46:18;6.47;;;4.38;;
18425;SDS011;9340;48.756;9.226;2023-09-18T02:48:47;7.55;;;4.05;;
18425;SDS011;9340;48.756;9.226;2023-09-18T02:51:13;7.72;;;4.28;;
18425;SDS011;9340;48.756;9.226;2023-09-18T02:53:40;12.20;;;4.22;;
18425;SDS011;9340;48.756;9.226;2023-09-18T02:56:07;7.20;;;3.30;;
18425;SDS011;9340;48.756;9.226;2023-09-18T02:58:33;9.38;;;4.10;;
18425;SDS011;9340;48.756;9.226;2023-09-18T03:01:00;9.10;;;3.80;;
18425;SDS011;9340;48.756;9.226;2023-09-18T03:03:29;9.45;;;3.70;;
18425;SDS011;9340;48.756;9.226;2023-09-18T03:06:01;7.72;;;3.75;;
18425;SDS011;9340;48.756;9.226;2023-09-18T03:08:29;8.68;;;3.42;;
18425;SDS011;9340;48.756;9.226;2023-09-18T03:10:55;9.57;;;4.18;;
18425;SDS011;9340;48.756;9.226;2023-09-18T03:13:22;15.65;;;10.90;;
18425;SDS011;9340;48.756;9.226;2023-09-18T03:15:49;11.65;;;7.53;;
18425;SDS011;9340;48.756;9.226;2023-09-18T03:18:16;7.43;;;3.90;;
18425;SDS011;9340;48.756;9.226;2023-09-18T03:20:42;7.40;;;4.10;;
18425;SDS011;9340;48.756;9.226;2023-09-18T03:23:10;9.55;;;3.90;;
18425;SDS011;9340;48.756;9.226;2023-09-18T03:25:37;7.07;;;4.15;;
18425;SDS011;9340;48.756;9.226;2023-09-18T03:28:04;7.35;;;4.10;;
18425;SDS011;9340;48.756;9.226;2023-09-18T03:30:31;12.10;;;4.60;;
18425;SDS011;9340;48.756;9.226;2023-09-18T03:32:58;11.75;;;5.18;;
18425;SDS011;9340;48.756;9.226;2023-09-18T03:35:24;9.73;;;5.13;;
18425;SDS011;9340;48.756;9.226;2023-09-18T03:37:52;8.63;;;5.00;;
18425;SDS011;9340;48.756;9.226;2023-09-18T03:40:21;10.38;;;4.93;;
18425;SDS011;9340;48.756;9.226;2023-09-18T03:42:48;13.18;;;5.63;;
18425;SDS011;9340;48.756;9.226;2023-09-18T03:45:15;6.00;;;4.15;;
18425;SDS011;9340;48.756;9.226;2023-09-18T03:47:44;7.75;;;4.53;;
18425;SDS011;9340;48.756;9.226;2023-09-18T03:50:11;6.35;;;4.50;;
18425;SDS011;9340;48.756;9.226;2023-09-18T03:52:38;7.50;;;4.15;;
18425;SDS011;9340;48.756;9.226;2023-09-18T03:55:06;8.32;;;5.05;;
18425;SDS011;9340;48.756;9.226;2023-09-18T03:57:34;7.38;;;4.25;;
18425;SDS011;9340;48.756;9.226;2023-09-18T04:00:01;9.18;;;4.40;;
18425;SDS011;9340;48.756;9.226;2023-09-18T04:02:29;5.93;;;4.13;;
18425;SDS011;9340;48.756;9.226;2023-09-18T04:04:56;6.63;;;3.50;;
18425;SDS011;9340;48.756;9.226;2023-09-18T04:07:23;9.18;;;4.22;;
18425;SDS011;9340;48.756;9.226;2023-09-18T04:09:49;9.43;;;4.65;;
18425;SDS011;9340;48.756;9.226;2023-09-18T04:12:16;8.82;;;4.05;;
18425;SDS011;9340;48.756;9.226;2023-09-18T04:14:44;8.02;;;4.03;;
18425;SDS011;9340;48.756;9.226;2023-09-18T04:17:11;6.22;;;4.15;;
18425;SDS011;9340;48.756;9.226;2023-09-18T04:19:38;9.23;;;4.38;;
18425;SDS011;9340;48.756;9.226;2023-09-18T04:22:05;9.60;;;4.72;;
18425;SDS011;9340;48.756;9.226;2023-09-18T04:24:31;11.10;;;7.38;;
18425;SDS011;9340;48.756;9.226;2023-09-18T04:26:58;9.82;;;7.35;;
18425;SDS011;9340;48.756;9.226;2023-09-18T04:29:24;6.43;;;4.32;;
18425;SDS011;9340;48.756;9.226;2023-09-18T04:31:52;11.15;;;4.72;;
18425;SDS011;9340;48.756;9.226;2023-09-18T04:34:19;6.95;;;4.50;;
18425;SDS011;9340;48.756;9.226;2023-09-18T04:36:46;8.57;;;4.80;;
18425;SDS011;9340;48.756;9.226;2023-09-18T04:39:13;13.05;;;5.43;;
18425;SDS011;9340;48.756;9.226;2023-09-18T04:41:40;10.55;;;4.78;;
18425;SDS011;9340;48.756;9.226;2023-09-18T04:44:06;8.23;;;4.78;;
18425;SDS011;9340;48.756;9.226;2023-09-18T04:46:33;8.10;;;5.05;;
18425;SDS011;9340;48.756;9.226;2023-09-18T04:49:02;12.20;;;5.25;;
18425;SDS011;9340;48.756;9.226;2023-09-18T04:51:30;8.68;;;5.05;;
18425;SDS011;9340;48.756;9.226;2023-09-18T04:53:57;7.72;;;4.70;;
18425;SDS011;9340;48.756;9.226;2023-09-18T04:56:24;8.88;;;5.38;;
18425;SDS011;9340;48.756;9.226;2023-09-18T04:58:51;9.48;;;5.80;;
18425;SDS011;9340;48.756;9.226;2023-09-18T05:01:18;8.48;;;4.72;;
18425;SDS011;9340;48.756;9.226;2023-09-18T05:03:45;7.35;;;4.80;;
18425;SDS011;9340;48.756;9.226;2023-09-18T05:06:15;7.00;;;5.15;;
18425;SDS011;9340;48.756;9.226;2023-09-18T05:08:42;8.48;;;4.60;;
18425;SDS011;9340;48.756;9.226;2023-09-18T05:11:09;10.00;;;4.43;;
18425;SDS011;9340;48.756;9.226;2023-09-18T05:13:36;8.48;;;4.88;;
18425;SDS011;9340;48.756;9.226;2023-09-18T05:16:03;5.88;;;4.18;;
18425;SDS011;9340;48.756;9.226;2023-09-18T05:18:29;7.00;;;4.65;;
18425;SDS011;9340;48.756;9.226;2023-09-18T05:20:56;7.85;;;4.05;;
18425;SDS011;9340;48.756;9.226;2023-09-18T05:23:24;6.25;;;4.15;;
18425;SDS011;9340;48.756;9.226;2023-09-18T05:25:51;7.53;;;3.97;;
18425;SDS011;9340;48.756;9.226;2023-09-18T05:28:18;9.23;;;3.83;;
18425;SDS011;9340;48.756;9.226;2023-09-18T05:30:44;8.65;;;3.92;;
18425;SDS011;9340;48.756;9.226;2023-09-18T05:33:11;8.45;;;4.25;;
18425;SDS011;9340;48.756;9.226;2023-09-18T05:35:39;8.07;;;4.25;;
18425;SDS011;9340;48.756;9.226;2023-09-18T05:38:07;7.55;;;4.93;;
18425;SDS011;9340;48.756;9.226;2023-09-18T05:40:36;6.80;;;4.13;;
18425;SDS011;9340;48.756;9.226;2023-09-18T05:43:03;8.10;;;4.07;;
18425;SDS011;9340;48.756;9.226;2023-09-18T05:45:29;9.82;;;4.63;;
18425;SDS011;9340;48.756;9.226;2023-09-18T05:47:56;6.85;;;4.13;;
18425;SDS011;9340;48.756;9.226;2023-09-18T05:50:28;8.23;;;4.65;;
18425;SDS011;9340;48.756;9.226;2023-09-18T05:52:56;4.00;;;3.63;;
18425;SDS011;9340;48.756;9.226;2023-09-18T05:55:24;6.05;;;4.00;;
18425;SDS011;9340;48.756;9.226;2023-09-18T05:57:53;8.82;;;4.47;;
18425;SDS011;9340;48.756;9.226;2023-09-18T06:00:19;5.90;;;4.22;;
18425;SDS011;9340;48.756;9.226;2023-09-18T06:02:47;8.93;;;4.20;;
18425;SDS011;9340;48.756;9.226;2023-09-18T06:05:14;6.25;;;4.05;;
18425;SDS011;9340;48.756;9.226;2023-09-18T06:07:42;5.28;;;3.90;;
18425;SDS011;9340;48.756;9.226;2023-09-18T06:10:09;6.90;;;3.92;;
18425;SDS011;9340;48.756;9.226;2023-09-18T06:12:37;5.72;;;3.95;;
18425;SDS011;9340;48.756;9.226;2023-09-18T06:15:06;7.07;;;3.97;;
18425;SDS011;9340;48.756;9.226;2023-09-18T06:17:34;6.00;;;3.85;;
18425;SDS011;9340;48.756;9.226;2023-09-18T06:20:02;9.48;;;4.45;;
18425;SDS011;9340;48.756;9.226;2023-09-18T06:22:29;5.30;;;4.20;;
18425;SDS011;9340;48.756;9.226;2023-09-18T06:24:56;5.82;;;4.32;;
18425;SDS011;9340;48.756;9.226;2023-09-18T06:27:23;7.05;;;4.40;;
18425;SDS011;9340;48.756;9.226;2023-09-18T06:29:49;8.32;;;4.55;;
18425;SDS011;9340;48.756;9.226;2023-09-18T06:32:17;8.98;;;4.18;;
18425;SDS011;9340;48.756;9.226;2023-09-18T06:34:44;7.50;;;4.18;;
18425;SDS011;9340;48.756;9.226;2023-09-18T06:37:12;7.35;;;3.67;;
18425;SDS011;9340;48.756;9.226;2023-09-18T06:39:39;5.97;;;4.30;;
18425;SDS011;9340;48.756;9.226;2023-09-18T06:42:06;7.07;;;4.05;;
18425;SDS011;9340;48.756;9.226;2023-09-18T06:44:32;4.18;;;3.40;;
18425;SDS011;9340;48.756;9.226;2023-09-18T06:46:59;5.93;;;3.83;;
18425;SDS011;9340;48.756;9.226;2023-09-18T06:49:27;8.57;;;4.28;;
18425;SDS011;9340;48.756;9.226;2023-09-18T06:51:55;8.55;;;3.90;;
18425;SDS011;9340;48.756;9.226;2023-09-18T06:54:23;6.72;;;4.15;;
18425;SDS011;9340;48.756;9.226;2023-09-18T06:56:49;6.15;;;4.10;;
18425;SDS011;9340;48.756;9.226;2023-09-18T06:59:16;4.60;;;4.10;;
18425;SDS011;9340;48.756;9.226;2023-09-18T07:01:43;9.02;;;3.85;;
18425;SDS011;9340;48.756;9.226;2023-09-18T07:04:10;7.32;;;4.25;;
18425;SDS011;9340;48.756;9.226;2023-09-18T07:06:38;7.38;;;3.72;;
18425;SDS011;9340;48.756;9.226;2023-09-18T07:09:05;6.13;;;4.15;;
18425;SDS011;9340;48.756;9.226;2023-09-18T07:11:32;10.57;;;4.50;;
18425;SDS011;9340;48.756;9.226;2023-09-18T07:13:59;6.20;;;3.38;;
18425;SDS011;9340;48.756;9.226;2023-09-18T07:16:31;7.10;;;3.83;;
18425;SDS011;9340;48.756;9.226;2023-09-18T07:18:58;8.55;;;3.63;;
18425;SDS011;9340;48.756;9.226;2023-09-18T07:21:24;8.07;;;4.00;;
18425;SDS011;9340;48.756;9.226;2023-09-18T07:23:52;4.68;;;3.53;;
18425;SDS011;9340;48.756;9.226;2023-09-18T07:26:19;6.28;;;3.40;;
18425;SDS011;9340;48.756;9.226;2023-09-18T07:28:46;7.07;;;2.58;;
18425;SDS011;9340;48.756;9.226;2023-09-18T07:31:13;5.38;;;3.03;;
18425;SDS011;9340;48.756;9.226;2023-09-18T07:33:40;6.75;;;2.83;;
18425;SDS011;9340;48.756;9.226;2023-09-18T07:36:07;7.18;;;3.28;;
18425;SDS011;9340;48.756;9.226;2023-09-18T07:38:35;4.15;;;2.42;;
18425;SDS011;9340;48.756;9.226;2023-09-18T07:41:03;5.53;;;2.38;;
18425;SDS011;9340;48.756;9.226;2023-09-18T07:43:31;6.00;;;2.72;;
18425;SDS011;9340;48.756;9.226;2023-09-18T07:45:58;3.65;;;2.35;;
18425;SDS011;9340;48.756;9.226;2023-09-18T07:48:24;6.38;;;2.60;;
18425;SDS011;9340;48.756;9.226;2023-09-18T07:50:51;4.40;;;2.10;;
18425;SDS011;9340;48.756;9.226;2023-09-18T07:53:19;3.83;;;1.98;;
18425;SDS011;9340;48.756;9.226;2023-09-18T07:55:47;2.80;;;2.30;;
18425;SDS011;9340;48.756;9.226;2023-09-18T07:58:16;4.22;;;1.75;;
18425;SDS011;9340;48.756;9.226;2023-09-18T08:00:42;3.05;;;2.00;;
18425;SDS011;9340;48.756;9.226;2023-09-18T08:03:09;4.03;;;1.95;;
18425;SDS011;9340;48.756;9.226;2023-09-18T08:05:36;2.53;;;1.65;;
18425;SDS011;9340;48.756;9.226;2023-09-18T08:08:03;3.72;;;1.65;;
18425;SDS011;9340;48.756;9.226;2023-09-18T08:10:31;4.10;;;1.70;;
18425;SDS011;9340;48.756;9.226;2023-09-18T08:12:58;1.88;;;1.63;;
18425;SDS011;9340;48.756;9.226;2023-09-18T08:15:26;3.90;;;1.70;;
18425;SDS011;9340;48.756;9.226;2023-09-18T08:17:54;3.10;;;1.98;;
18425;SDS011;9340;48.756;9.226;2023-09-18T08:20:20;2.50;;;1.77;;
18425;SDS011;9340;48.756;9.226;2023-09-18T08:22:47;2.45;;;1.60;;
18425;SDS011;9340;48.756;9.226;2023-09-18T08:25:15;3.85;;;1.85;;
18425;SDS011;9340;48.756;9.226;2023-09-18T08:27:42;3.13;;;1.77;;
18425;SDS011;9340;48.756;9.226;2023-09-18T08:30:09;3.13;;;1.73;;
18425;SDS011;9340;48.756;9.226;2023-09-18T08:32:38;5.68;;;1.77;;
18425;SDS011;9340;48.756;9.226;2023-09-18T08:35:05;3.03;;;1.90;;
18425;SDS011;9340;48.756;9.226;2023-09-18T08:37:33;3.13;;;1.75;;
18425;SDS011;9340;48.756;9.226;2023-09-18T08:39:59;1.92;;;1.45;;
18425;SDS011;9340;48.756;9.226;2023-09-18T08:42:35;4.03;;;1.90;;
18425;SDS011;9340;48.756;9.226;2023-09-18T08:45:04;1.80;;;1.58;;
18425;SDS011;9340;48.756;9.226;2023-09-18T08:47:34;3.58;;;1.70;;
18425;SDS011;9340;48.756;9.226;2023-09-18T08:50:03;4.68;;;1.50;;
18425;SDS011;9340;48.756;9.226;2023-09-18T08:52:30;3.75;;;1.92;;
18425;SDS011;9340;48.756;9.226;2023-09-18T08:54:57;2.63;;;1.60;;
18425;SDS011;9340;48.756;9.226;2023-09-18T08:57:25;2.08;;;1.52;;
18425;SDS011;9340;48.756;9.226;2023-09-18T08:59:55;1.63;;;1.50;;
18425;SDS011;9340;48.756;9.226;2023-09-18T09:02:23;2.90;;;1.75;;
18425;SDS011;9340;48.756;9.226;2023-09-18T09:04:49;3.08;;;1.80;;
18425;SDS011;9340;48.756;9.226;2023-09-18T09:07:17;1.95;;;1.63;;
18425;SDS011;9340;48.756;9.226;2023-09-18T09:09:44;2.95;;;1.52;;
18425;SDS011;9340;48.756;9.226;2023-09-18T09:12:12;1.63;;;1.50;;
18425;SDS011;9340;48.756;9.226;2023-09-18T09:14:39;1.70;;;1.60;;
18425;SDS011;9340;48.756;9.226;2023-09-18T09:17:06;3.92;;;1.83;;
18425;SDS011;9340;48.756;9.226;2023-09-18T09:19:33;3.13;;;1.90;;
18425;SDS011;9340;48.756;9.226;2023-09-18T09:22:04;4.03;;;1.77;;
18425;SDS011;9340;48.756;9.226;2023-09-18T09:24:38;3.15;;;1.75;;
18425;SDS011;9340;48.756;9.226;2023-09-18T09:27:06;2.03;;;1.63;;
18425;SDS011;9340;48.756;9.226;2023-09-18T09:29:33;2.03;;;1.60;;
18425;SDS011;9340;48.756;9.226;2023-09-18T09:32:11;2.50;;;1.80;;
18425;SDS011;9340;48.756;9.226;2023-09-18T09:34:40;3.42;;;1.77;;
18425;SDS011;9340;48.756;9.226;2023-09-18T09:37:07;5.18;;;1.90;;
18425;SDS011;9340;48.756;9.226;2023-09-18T09:39:46;3.22;;;1.98;;
18425;SDS011;9340;48.756;9.226;2023-09-18T09:42:16;2.42;;;1.65;;
18425;SDS011;9340;48.756;9.226;2023-09-18T09:44:47;2.10;;;1.60;;
18425;SDS011;9340;48.756;9.226;2023-09-18T09:47:14;3.03;;;1.73;;
18425;SDS011;9340;48.756;9.226;2023-09-18T09:49:47;4.00;;;2.10;;
18425;SDS011;9340;48.756;9.226;2023-09-18T09:52:17;5.03;;;2.22;;
18425;SDS011;9340;48.756;9.226;2023-09-18T09:54:47;4.28;;;1.80;;
18425;SDS011;9340;48.756;9.226;2023-09-18T09:57:14;4.55;;;2.05;;
18425;SDS011;9340;48.756;9.226;2023-09-18T09:59:41;2.92;;;1.90;;
18425;SDS011;9340;48.756;9.226;2023-09-18T10:02:10;6.88;;;2.38;;
18425;SDS011;9340;48.756;9.226;2023-09-18T10:04:39;3.22;;;2.58;;
18425;SDS011;9340;48.756;9.226;2023-09-18T10:07:08;7.13;;;3.50;;
18425;SDS011;9340;48.756;9.226;2023-09-18T10:09:38;6.10;;;3.22;;
18425;SDS011;9340;48.756;9.226;2023-09-18T10:12:10;4.97;;;3.58;;
18425;SDS011;9340;48.756;9.226;2023-09-18T10:14:37;5.60;;;3.00;;
18425;SDS011;9340;48.756;9.226;2023-09-18T10:17:09;3.50;;;2.85;;
18425;SDS011;9340;48.756;9.226;2023-09-18T10:19:44;5.30;;;2.88;;
18425;SDS011;9340;48.756;9.226;2023-09-18T10:22:18;4.47;;;2.65;;
18425;SDS011;9340;48.756;9.226;2023-09-18T10:24:52;3.38;;;2.40;;
18425;SDS011;9340;48.756;9.226;2023-09-18T10:27:26;4.47;;;2.35;;
18425;SDS011;9340;48.756;9.226;2023-09-18T10:29:53;3.78;;;2.58;;
18425;SDS011;9340;48.756;9.226;2023-09-18T10:32:21;4.10;;;2.60;;
18425;SDS011;9340;48.756;9.226;2023-09-18T10:34:49;4.10;;;2.63;;
18425;SDS011;9340;48.756;9.226;2023-09-18T10:37:16;3.22;;;2.58;;
18425;SDS011;9340;48.756;9.226;2023-09-18T10:39:43;5.78;;;2.35;;
18425;SDS011;9340;48.756;9.226;2023-09-18T10:42:14;4.63;;;2.05;;
18425;SDS011;9340;48.756;9.226;2023-09-18T10:44:46;3.28;;;2.60;;
18425;SDS011;9340;48.756;9.226;2023-09-18T10:47:13;3.10;;;2.60;;
18425;SDS011;9340;48.756;9.226;2023-09-18T10:49:40;3.40;;;1.98;;
18425;SDS011;9340;48.756;9.226;2023-09-18T10:52:10;3.67;;;2.40;;
18425;SDS011;9340;48.756;9.226;2023-09-18T10:54:37;4.28;;;2.35;;
18425;SDS011;9340;48.756;9.226;2023-09-18T10:57:05;3.55;;;2.10;;
18425;SDS011;9340;48.756;9.226;2023-09-18T10:59:32;5.20;;;2.55;;
18425;SDS011;9340;48.756;9.226;2023-09-18T11:02:03;3.50;;;2.10;;
18425;SDS011;9340;48.756;9.226;2023-09-18T11:04:31;4.60;;;2.42;;
18425;SDS011;9340;48.756;9.226;2023-09-18T11:07:01;3.75;;;2.20;;
18425;SDS011;9340;48.756;9.226;2023-09-18T11:09:29;3.03;;;1.80;;
18425;SDS011;9340;48.756;9.226;2023-09-18T11:12:01;2.45;;;1.80;;
18425;SDS011;9340;48.756;9.226;2023-09-18T11:14:40;2.60;;;1.92;;
18425;SDS011;9340;48.756;9.226;2023-09-18T11:20:01;3.67;;;2.10;;
18425;SDS011;9340;48.756;9.226;2023-09-18T11:22:30;3.30;;;1.95;;
18425;SDS011;9340;48.756;9.226;2023-09-18T11:27:55;2.47;;;1.77;;
18425;SDS011;9340;48.756;9.226;2023-09-18T11:30:21;2.88;;;1.63;;
18425;SDS011;9340;48.756;9.226;2023-09-18T11:32:50;3.88;;;1.98;;
18425;SDS011;9340;48.756;9.226;2023-09-18T11:35:17;3.03;;;1.70;;
18425;SDS011;9340;48.756;9.226;2023-09-18T11:37:44;1.92;;;1.77;;
18425;SDS011;9340;48.756;9.226;2023-09-18T11:40:27;3.10;;;2.00;;
18425;SDS011;9340;48.756;9.226;2023-09-18T11:45:52;3.00;;;1.70;;
18425;SDS011;9340;48.756;9.226;2023-09-18T11:48:21;2.33;;;1.73;;
18425;SDS011;9340;48.756;9.226;2023-09-18T11:50:52;4.10;;;1.70;;
18425;SDS011;9340;48.756;9.226;2023-09-18T11:53:20;2.75;;;1.58;;
18425;SDS011;9340;48.756;9.226;2023-09-18T11:55:47;2.58;;;1.77;;
18425;SDS011;9340;48.756;9.226;2023-09-18T11:58:14;1.98;;;1.67;;
18425;SDS011;9340;48.756;9.226;2023-09-18T12:00:41;1.80;;;1.70;;
18425;SDS011;9340;48.756;9.226;2023-09-18T12:03:14;4.55;;;1.83;;
18425;SDS011;9340;48.756;9.226;2023-09-18T12:05:51;2.47;;;1.50;;
18425;SDS011;9340;48.756;9.226;2023-09-18T12:08:19;3.00;;;1.70;;
18425;SDS011;9340;48.756;9.226;2023-09-18T12:10:49;4.68;;;2.35;;
18425;SDS011;9340;48.756;9.226;2023-09-18T12:13:16;2.58;;;1.63;;
18425;SDS011;9340;48.756;9.226;2023-09-18T12:15:43;3.35;;;1.77;;
18425;SDS011;9340;48.756;9.226;2023-09-18T12:18:10;2.83;;;2.00;;
18425;SDS011;9340;48.756;9.226;2023-09-18T12:20:44;1.88;;;1.77;;
18425;SDS011;9340;48.756;9.226;2023-09-18T12:23:12;3.15;;;1.90;;
18425;SDS011;9340;48.756;9.226;2023-09-18T12:25:39;3.08;;;1.90;;
18425;SDS011;9340;48.756;9.226;2023-09-18T12:28:06;2.88;;;2.08;;
18425;SDS011;9340;48.756;9.226;2023-09-18T12:30:33;2.80;;;1.77;;
18425;SDS011;9340;48.756;9.226;2023-09-18T12:33:00;3.67;;;1.80;;
18425;SDS011;9340;48.756;9.226;2023-09-18T12:35:28;2.33;;;1.90;;
18425;SDS011;9340;48.756;9.226;2023-09-18T12:37:55;2.08;;;1.80;;
18425;SDS011;9340;48.756;9.226;2023-09-18T12:40:25;3.10;;;1.90;;
18425;SDS011;9340;48.756;9.226;2023-09-18T12:42:53;3.30;;;2.10;;
18425;SDS011;9340;48.756;9.226;2023-09-18T12:45:21;4.15;;;2.10;;
18425;SDS011;9340;48.756;9.226;2023-09-18T12:47:49;2.95;;;2.20;;
18425;SDS011;9340;48.756;9.226;2023-09-18T12:50:17;2.53;;;1.63;;
18425;SDS011;9340;48.756;9.226;2023-09-18T12:52:43;2.55;;;1.88;;
18425;SDS011;9340;48.756;9.226;2023-09-18T12:55:20;2.63;;;1.80;;
18425;SDS011;9340;48.756;9.226;2023-09-18T12:57:50;3.08;;;1.67;;
18425;SDS011;9340;48.756;9.226;2023-09-18T13:00:17;2.42;;;1.77;;
18425;SDS011;9340;48.756;9.226;2023-09-18T13:02:47;3.30;;;1.77;;
18425;SDS011;9340;48.756;9.226;2023-09-18T13:05:18;5.30;;;1.73;;
18425;SDS011;9340;48.756;9.226;2023-09-18T13:07:46;4.85;;;1.77;;
18425;SDS011;9340;48.756;9.226;2023-09-18T13:10:15;3.15;;;1.75;;
18425;SDS011;9340;48.756;9.226;2023-09-18T13:12:43;3.03;;;1.73;;
18425;SDS011;9340;48.756;9.226;2023-09-18T13:15:13;2.92;;;1.83;;
18425;SDS011;9340;48.756;9.226;2023-09-18T13:17:40;2.47;;;1.90;;
18425;SDS011;9340;48.756;9.226;2023-09-18T13:20:10;2.17;;;1.65;;
18425;SDS011;9340;48.756;9.226;2023-09-18T13:22:38;2.97;;;1.63;;
18425;SDS011;9340;48.756;9.226;2023-09-18T13:25:05;2.65;;;1.45;;
18425;SDS011;9340;48.756;9.226;2023-09-18T13:27:33;2.25;;;1.67;;
18425;SDS011;9340;48.756;9.226;2023-09-18T13:29:59;3.22;;;1.88;;
18425;SDS011;9340;48.756;9.226;2023-09-18T13:32:33;3.47;;;2.10;;
18425;SDS011;9340;48.756;9.226;2023-09-18T13:35:01;2.97;;;1.83;;
18425;SDS011;9340;48.756;9.226;2023-09-18T13:37:30;2.53;;;1.67;;
18425;SDS011;9340;48.756;9.226;2023-09-18T13:39:57;4.80;;;1.83;;
18425;SDS011;9340;48.756;9.226;2023-09-18T13:42:26;2.40;;;1.65;;
18425;SDS011;9340;48.756;9.226;2023-09-18T13:44:54;3.42;;;1.85;;
18425;SDS011;9340;48.756;9.226;2023-09-18T13:47:21;4.60;;;2.03;;
18425;SDS011;9340;48.756;9.226;2023-09-18T13:49:49;3.70;;;1.70;;
18425;SDS011;9340;48.756;9.226;2023-09-18T13:52:16;2.30;;;1.70;;
18425;SDS011;9340;48.756;9.226;2023-09-18T13:54:44;3.50;;;1.80;;
18425;SDS011;9340;48.756;9.226;2023-09-18T13:57:16;2.20;;;1.52;;
18425;SDS011;9340;48.756;9.226;2023-09-18T13:59:43;1.77;;;1.58;;
18425;SDS011;9340;48.756;9.226;2023-09-18T14:02:10;7.00;;;2.20;;
18425;SDS011;9340;48.756;9.226;2023-09-18T14:04:37;2.30;;;1.55;;
18425;SDS011;9340;48.756;9.226;2023-09-18T14:07:05;2.35;;;1.83;;
18425;SDS011;9340;48.756;9.226;2023-09-18T14:09:33;3.03;;;1.67;;
18425;SDS011;9340;48.756;9.226;2023-09-18T14:12:00;3.55;;;1.90;;
18425;SDS011;9340;48.756;9.226;2023-09-18T14:14:27;2.90;;;1.80;;
18425;SDS011;9340;48.756;9.226;2023-09-18T14:16:54;1.80;;;1.70;;
18425;SDS011;9340;48.756;9.226;2023-09-18T14:19:22;3.58;;;1.80;;
18425;SDS011;9340;48.756;9.226;2023-09-18T14:21:49;3.08;;;1.88;;
18425;SDS011;9340;48.756;9.226;2023-09-18T14:24:18;2.25;;;1.60;;
18425;SDS011;9340;48.756;9.226;2023-09-18T14:26:47;2.45;;;1.50;;
18425;SDS011;9340;48.756;9.226;2023-09-18T14:29:14;2.88;;;1.67;;
18425;SDS011;9340;48.756;9.226;2023-09-18T14:31:41;1.63;;;1.52;;
18425;SDS011;9340;48.756;9.226;2023-09-18T14:34:08;3.13;;;2.00;;
18425;SDS011;9340;48.756;9.226;2023-09-18T14:36:35;5.00;;;1.95;;
18425;SDS011;9340;48.756;9.226;2023-09-18T14:39:04;1.70;;;1.60;;
18425;SDS011;9340;48.756;9.226;2023-09-18T14:41:34;1.67;;;1.55;;
18425;SDS011;9340;48.756;9.226;2023-09-18T14:44:01;2.03;;;1.50;;
18425;SDS011;9340;48.756;9.226;2023-09-18T14:46:28;2.10;;;1.63;;
18425;SDS011;9340;48.756;9.226;2023-09-18T14:48:56;3.10;;;1.90;;
18425;SDS011;9340;48.756;9.226;2023-09-18T14:51:23;1.95;;;1.75;;
18425;SDS011;9340;48.756;9.226;2023-09-18T14:53:50;2.17;;;1.88;;
18425;SDS011;9340;48.756;9.226;2023-09-18T14:56:16;5.03;;;1.63;;
18425;SDS011;9340;48.756;9.226;2023-09-18T14:58:44;2.00;;;1.48;;
18425;SDS011;9340;48.756;9.226;2023-09-18T15:01:11;2.85;;;1.73;;
18425;SDS011;9340;48.756;9.226;2023-09-18T15:03:39;1.95;;;1.83;;
18425;SDS011;9340;48.756;9.226;2023-09-18T15:06:06;1.83;;;1.40;;
18425;SDS011;9340;48.756;9.226;2023-09-18T15:08:33;1.92;;;1.67;;
18425;SDS011;9340;48.756;9.226;2023-09-18T15:11:00;1.65;;;1.52;;
18425;SDS011;9340;48.756;9.226;2023-09-18T15:13:27;4.30;;;1.92;;